Relliable — WDH4628 — position and weather

sailwx.info

Track history (hours):
 
Tides and Currents Weather Stations Pressure Air Temp Water Temp Dewpoint Dewpoint Depression Visibility Wind Speed Wind Dir Waves Ship Positions

Relliable

Owner: Coastline Marine Towing Inc., Atl Highlands, NJ. More information available from US FCC via Universal Licensing System and Coast Guard Vessel Documentation Center.

Last reported at 2018-Apr-19 14:34 UTC. Time now 2018-Apr-20 01:29 UTC.
Position N 40°34' W 074°00'.

Type: Tug. MMSI: 367619670.

Date/timePositionNaut miles runAvg speedWind from/ knotsBaromVisibWave heightAir tempDewpointWater temp
2018-Apr-19 14:34N 40°34' W 074°00'2 6.4
2018-Apr-19 14:19N 40°35' W 074°02'2 6.2
2018-Apr-19 13:59N 40°37' W 074°03'3 6.7
2018-Apr-19 13:30N 40°40' W 074°04'1 1.5
2018-Apr-19 12:59N 40°41' W 074°04'0 0.0
2018-Apr-19 12:30N 40°41' W 074°04'0 0.0
2018-Apr-19 11:59N 40°41' W 074°04'0 0.0
2018-Apr-19 11:30N 40°41' W 074°04'0 0.0
2018-Apr-19 11:00N 40°41' W 074°04'0 0.0
2018-Apr-19 10:30N 40°41' W 074°04'0 0.0
2018-Apr-19 10:00N 40°41' W 074°04'1 2.7
2018-Apr-19 09:30N 40°40' W 074°03'1 2.4
2018-Apr-19 09:00N 40°39' W 074°03'2 3.2
2018-Apr-19 08:29N 40°37' W 074°03'1 3.0
2018-Apr-19 08:00N 40°36' W 074°02'1 2.7
2018-Apr-19 07:29N 40°35' W 074°01'1 0.4
2018-Apr-19 05:09N 40°34' W 074°01'2 0.1
2018-Apr-18 07:15N 40°35' W 074°03'2 6.6
2018-Apr-18 07:00N 40°36' W 074°01'1 1.9
2018-Apr-18 06:28N 40°35' W 073°60'2 4.1
2018-Apr-18 05:59N 40°36' W 074°02'3 6.2
2018-Apr-18 05:30N 40°39' W 074°02'1 2.3
2018-Apr-18 05:00N 40°40' W 074°01'0 0.1
2018-Apr-18 04:29N 40°40' W 074°01'0 0.0
2018-Apr-18 04:00N 40°40' W 074°01'3 5.9
2018-Apr-18 03:30N 40°37' W 074°03'  
2018-Apr-12 13:02N 40°34' W 074°00'0 8.0
2018-Apr-12 12:59N 40°34' W 074°01'3 0.1
2018-Apr-10 21:19N 40°35' W 074°03'3 9.1
2018-Apr-10 21:00N 40°38' W 074°03'2 4.6
2018-Apr-10 20:30N 40°40' W 074°01'1 2.4
2018-Apr-10 20:00N 40°41' W 074°01'1 1.4
2018-Apr-10 19:30N 40°42' W 074°00'0 0.0
2018-Apr-10 19:00N 40°42' W 074°00'2 4.0
2018-Apr-10 18:31N 40°40' W 074°02'2 4.4
2018-Apr-10 17:58N 40°38' W 074°03'2 4.3
2018-Apr-10 17:30N 40°36' W 074°02'2 3.5
2018-Apr-10 17:00N 40°34' W 074°01'1 0.1
2018-Apr-10 11:46N 40°34' W 074°00'2 5.6
2018-Apr-10 11:28N 40°35' W 074°02'3 5.7
2018-Apr-10 10:58N 40°38' W 074°03'2 5.0
2018-Apr-10 10:30N 40°40' W 074°01'1 1.0
2018-Apr-10 10:00N 40°40' W 074°01'3 6.0
2018-Apr-10 09:30N 40°37' W 074°03'  
Track history (hours):
 
Tides and Currents Weather Stations Pressure Air Temp Water Temp Dewpoint Dewpoint Depression Visibility Wind Speed Wind Dir Waves Ship Positions

Relliable

Owner: Coastline Marine Towing Inc., Atl Highlands, NJ. More information available from US FCC via Universal Licensing System and Coast Guard Vessel Documentation Center.

Last reported at 2018-Apr-19 14:34 UTC. Time now 2018-Apr-20 01:29 UTC.
Position N 40°34' W 074°00'.

Type: Tug. MMSI: 367619670.

Date/timePositionNaut miles runAvg speedWind from/ knotsBaromVisibWave heightAir tempDewpointWater temp
2018-Apr-19 14:34N 40°34' W 074°00'2 6.4
2018-Apr-19 14:19N 40°35' W 074°02'2 6.2
2018-Apr-19 13:59N 40°37' W 074°03'3 6.7
2018-Apr-19 13:30N 40°40' W 074°04'1 1.5
2018-Apr-19 12:59N 40°41' W 074°04'0 0.0
2018-Apr-19 12:30N 40°41' W 074°04'0 0.0
2018-Apr-19 11:59N 40°41' W 074°04'0 0.0
2018-Apr-19 11:30N 40°41' W 074°04'0 0.0
2018-Apr-19 11:00N 40°41' W 074°04'0 0.0
2018-Apr-19 10:30N 40°41' W 074°04'0 0.0
2018-Apr-19 10:00N 40°41' W 074°04'1 2.7
2018-Apr-19 09:30N 40°40' W 074°03'1 2.4
2018-Apr-19 09:00N 40°39' W 074°03'2 3.2
2018-Apr-19 08:29N 40°37' W 074°03'1 3.0
2018-Apr-19 08:00N 40°36' W 074°02'1 2.7
2018-Apr-19 07:29N 40°35' W 074°01'1 0.4
2018-Apr-19 05:09N 40°34' W 074°01'2 0.1
2018-Apr-18 07:15N 40°35' W 074°03'2 6.6
2018-Apr-18 07:00N 40°36' W 074°01'1 1.9
2018-Apr-18 06:28N 40°35' W 073°60'2 4.1
2018-Apr-18 05:59N 40°36' W 074°02'3 6.2
2018-Apr-18 05:30N 40°39' W 074°02'1 2.3
2018-Apr-18 05:00N 40°40' W 074°01'0 0.1
2018-Apr-18 04:29N 40°40' W 074°01'0 0.0
2018-Apr-18 04:00N 40°40' W 074°01'3 5.9
2018-Apr-18 03:30N 40°37' W 074°03'  
2018-Apr-12 13:02N 40°34' W 074°00'0 8.0
2018-Apr-12 12:59N 40°34' W 074°01'3 0.1
2018-Apr-10 21:19N 40°35' W 074°03'3 9.1
2018-Apr-10 21:00N 40°38' W 074°03'2 4.6
2018-Apr-10 20:30N 40°40' W 074°01'1 2.4
2018-Apr-10 20:00N 40°41' W 074°01'1 1.4
2018-Apr-10 19:30N 40°42' W 074°00'0 0.0
2018-Apr-10 19:00N 40°42' W 074°00'2 4.0
2018-Apr-10 18:31N 40°40' W 074°02'2 4.4
2018-Apr-10 17:58N 40°38' W 074°03'2 4.3
2018-Apr-10 17:30N 40°36' W 074°02'2 3.5
2018-Apr-10 17:00N 40°34' W 074°01'1 0.1
2018-Apr-10 11:46N 40°34' W 074°00'2 5.6
2018-Apr-10 11:28N 40°35' W 074°02'3 5.7
2018-Apr-10 10:58N 40°38' W 074°03'2 5.0
2018-Apr-10 10:30N 40°40' W 074°01'1 1.0
2018-Apr-10 10:00N 40°40' W 074°01'3 6.0
2018-Apr-10 09:30N 40°37' W 074°03'  

Dump ship's entire track history